Startpagina
METAR-TAF:

METAR-TAF

Vliegvelden :

Lanseria International Airport

Lanseria, Zuid-Afrika

breedte: 25-56S, lengte: 027-56E, hoogte: 1377 m

Actueel weer

Dit bericht is 24 minuten geleden gemaakt, om 20:00 UTC
Wind 6 kt uit het zuidzuidwesten
Temperatuur 12°C
Vochtigheid 16%
Druk 1024 hPa
Zicht 10 km of meer
geen wolken onder 1500 m en geen cumulonimbus

METAR: FALA 242000Z 21006KT CAVOK 12/M13 Q1024 NOSIG

Tijdstip: 22:24 (20:24 UTC)

Verwachting

Dit bericht is 4 uur en het 14 minuten geleden gemaakt, om 16:10 UTC
Verwachting geldig van 24 om 18 UTC tot 25 om 18 UTC
Wind 3 kt uit variabele richting
Zicht 10 km of meer
geen wolken onder 1500 m en geen cumulonimbus

TAF: FALA 241610Z 2418/2518 VRB03KT CAVOK TX22/2513Z TN04/2504Z

Waarnemingen en weersverwachtingen van meer dan 4000 vliegvelden (METAR en TAF).

De beschikbare stations zijn de gele en rode punten op de kaart.

Ga met uw muis naar het station om de naam te zien.

Klik dan om waarnemingen en weersverwachtingen te zien.

kaart wijzigen: klik op de groene knoppen met een zwart kruis om in te zoomen, op de groene knop met een streepje om uit te zoomen of op de groene pijlen voor aangrenzende kaarten.


METAR-TAF: